Knoxville, TN (37914)

5:46 AM EST on December 19, 2014 (GMT -0500)
North Knoxville | Change Station
CLOSE
Current Station
Personal Weather Station
Location: Knoxville, TN
Elevation: 988 ft
Nearby Weather Stations

Elev 988 ft 36.01 °N, 83.93 °W | Updated 3 minutes ago

Overcast
Overcast
36.7 °F
Feels Like 37 °F
N
2.2
Wind Variable Wind from NE

Today
High -- | Low -- °F
--% Chance of Precip.
Yesterday
High -- | Low -- °F
Precip. -- in
7:41 AM 5:23 PM
Waning Crescent, 8% visible
Pressure 30.20 in
Visibility 10.0 miles
Clouds Overcast 4100 ft
Windchill 37 °F
Dew Point 28 °F
Humidity 72%
Rainfall 0.00 in
Snow Depth Not available.
UV 0 out of 12
Pollen .10 out of 12
Air Quality Not available.
Flu Activity Not available.
METAR KTYS 190953Z 00000KT 10SM OVC041 01/M02 A3018 RMK AO2 SLP225 T00061022

More Conditions Fewer Conditions

Pressure 30.20 in
Visibility 10.0 miles
Clouds Overcast 4100 ft
Windchill 37 °F
Dew Point 28 °F
Humidity 72%
Rainfall 0.00 in
Snow Depth Not available.
UV 0 out of 12
Pollen .10 out of 12
Air Quality Not available.
Flu Activity Not available.
METAR KTYS 190953Z 00000KT 10SM OVC041 01/M02 A3018 RMK AO2 SLP225 T00061022

More Conditions Fewer Conditions

10-Day Weather Forecast

Almanac

Astronomy

Dec. 19, 2014 Rise Set
Actual Time
Civil Twilight
Nautical Twilight
Astronomical Twilight
Moon
Length of Visible Light
Length of Day
Tomorrow will be .
, % of the Moon is Illuminated

Today's Extremes

State Highs State Lows

Community

WunderPhotos

Upload Photos

1,778,966 photos uploaded!

WunderBlogs® & News

Nearby

Air Quality

  Air Quality AQ Index Pollutant
Not available.

Snow Depth

Station Depth Elevation

Earthquake Activity

City Distance Mag. Time & Date
Minimum magnitude displayed is 2.5.

Coastal Water Temperatures

Place Temperature

Nearby Weather Stations